Terminal Aerodrome Forecast
Issued by NWS Lake Charles, LA

Home | Current Version | Previous Version | Text Only | Print | Product List | Glossary On
Versions: 1 2 3 4 5 6 7 8 9 10 11 12 13
000
FTUS44 KLCH 161736
TAFBPT
TAF
KBPT 161736Z 1618/1718 10010KT P6SM SCT100
     FM170000 10010KT P6SM VCSH OVC035
     FM170300 10012G18KT P6SM -SHRA OVC025
      TEMPO 1708/1712 2SM TSRA BR OVC007CB
     FM171200 01010KT P6SM -SHRA BKN020=

USA.gov is the U.S. government's official web portal to all federal, state and local government web resources and services.